createdAt,value
2023-04-20T00:03:34.749Z,7.40
2023-04-20T00:07:36.271Z,7.40
2023-04-20T00:11:37.428Z,8.80
2023-04-20T00:15:38.603Z,7.87
2023-04-20T00:19:39.747Z,8.27
2023-04-20T00:23:41.635Z,9.00
2023-04-20T00:27:43.974Z,8.00
2023-04-20T00:31:45.323Z,8.20
2023-04-20T00:35:46.486Z,8.03
2023-04-20T00:39:47.652Z,7.73
2023-04-20T00:43:53.106Z,6.77
2023-04-20T00:47:54.320Z,6.80
2023-04-20T00:51:57.682Z,6.67
2023-04-20T00:55:59.040Z,7.30
2023-04-20T01:00:00.793Z,8.40
2023-04-20T01:04:02.162Z,7.20
2023-04-20T01:08:05.177Z,11.97
2023-04-20T01:12:07.092Z,6.93
2023-04-20T01:16:08.309Z,6.80
2023-04-20T01:20:13.922Z,11.27
2023-04-20T01:24:15.092Z,8.20
2023-04-20T01:28:16.256Z,9.97
2023-04-20T01:32:17.428Z,8.60
2023-04-20T01:36:18.669Z,6.50
2023-04-20T01:40:19.827Z,7.63
2023-04-20T01:44:20.990Z,10.10
2023-04-20T01:48:22.154Z,8.80
2023-04-20T01:52:23.326Z,8.47
2023-04-20T01:56:24.796Z,7.10
2023-04-20T02:00:25.963Z,7.70
2023-04-20T02:04:27.148Z,7.50
2023-04-20T02:08:28.292Z,7.40
2023-04-20T02:12:29.770Z,8.20
2023-04-20T02:16:30.948Z,10.33
2023-04-20T02:20:32.146Z,9.43
2023-04-20T02:24:33.332Z,8.87
2023-04-20T02:28:34.470Z,6.80
2023-04-20T02:32:35.920Z,13.47
2023-04-20T02:36:37.193Z,9.80
2023-04-20T02:40:38.359Z,11.57
2023-04-20T02:44:39.457Z,12.63
2023-04-20T02:48:41.149Z,9.83
2023-04-20T02:52:42.294Z,11.17
2023-04-20T02:56:43.943Z,9.20
2023-04-20T03:00:45.196Z,7.63
2023-04-20T03:04:46.452Z,7.10
2023-04-20T03:08:47.804Z,6.93
2023-04-20T03:12:48.978Z,9.30
2023-04-20T03:16:50.873Z,11.60
2023-04-20T03:20:52.092Z,12.90
2023-04-20T03:24:53.706Z,11.10
2023-04-20T03:28:56.260Z,10.60
2023-04-20T03:32:57.489Z,9.07
2023-04-20T03:36:58.578Z,8.30
2023-04-20T03:40:59.828Z,10.73
2023-04-20T03:45:01.024Z,9.63
2023-04-20T03:49:02.668Z,6.60
2023-04-20T03:53:03.825Z,17.67
2023-04-20T03:57:05.390Z,12.47
2023-04-20T04:01:07.157Z,15.13
2023-04-20T04:05:08.650Z,12.73
2023-04-20T04:09:10.224Z,9.90
2023-04-20T04:13:11.531Z,9.07
2023-04-20T04:17:15.978Z,10.70
2023-04-20T04:21:17.290Z,9.63
2023-04-20T04:25:19.747Z,10.67
2023-04-20T04:29:21.540Z,16.40
2023-04-20T04:33:24.932Z,12.27
2023-04-20T04:37:26.638Z,12.63
2023-04-20T04:41:28.038Z,9.63
2023-04-20T04:45:29.491Z,9.10
2023-04-20T04:49:31.724Z,8.40
2023-04-20T04:53:32.881Z,8.70
2023-04-20T04:57:35.588Z,15.43
2023-04-20T05:01:36.786Z,11.93
2023-04-20T05:05:37.924Z,10.83
2023-04-20T05:09:39.496Z,8.80
2023-04-20T05:13:40.901Z,10.50
2023-04-20T05:17:42.213Z,10.17
2023-04-20T05:21:44.027Z,10.83
2023-04-20T05:25:46.033Z,17.20
2023-04-20T05:29:47.174Z,11.80
2023-04-20T05:33:48.354Z,11.23
2023-04-20T05:37:49.587Z,9.67
2023-04-20T05:41:50.814Z,12.37
2023-04-20T05:45:52.048Z,11.43
2023-04-20T05:49:53.452Z,12.33
2023-04-20T05:53:54.722Z,9.57
2023-04-20T05:57:55.916Z,12.13
2023-04-20T06:01:57.361Z,9.63
2023-04-20T06:05:58.745Z,10.43
2023-04-20T06:10:01.224Z,11.80
2023-04-20T06:14:02.569Z,10.00
2023-04-20T06:18:04.014Z,9.67
2023-04-20T06:22:09.373Z,12.40
2023-04-20T06:26:10.929Z,10.90
2023-04-20T06:30:12.930Z,11.50
2023-04-20T06:34:14.309Z,19.27
2023-04-20T06:38:15.455Z,11.23
2023-04-20T06:42:17.936Z,17.43
2023-04-20T06:46:19.219Z,13.67
2023-04-20T06:50:21.264Z,13.20
2023-04-20T06:54:23.265Z,9.57
2023-04-20T06:58:24.476Z,11.37
2023-04-20T07:02:26.060Z,11.37
2023-04-20T07:06:27.870Z,11.77
2023-04-20T07:10:29.022Z,15.00
2023-04-20T07:14:30.298Z,10.80
2023-04-20T07:18:32.906Z,12.60
2023-04-20T07:22:36.300Z,10.17
2023-04-20T07:26:37.618Z,11.73
2023-04-20T07:30:38.785Z,8.27
2023-04-20T07:34:39.953Z,12.30
2023-04-20T07:38:41.207Z,9.60
2023-04-20T07:42:42.389Z,9.37
2023-04-20T07:46:43.538Z,8.60
2023-04-20T07:50:45.829Z,9.50
2023-04-20T07:54:47.019Z,10.63
2023-04-20T07:58:48.133Z,8.77
2023-04-20T08:02:49.435Z,10.30
2023-04-20T08:06:50.775Z,9.47
2023-04-20T08:10:51.942Z,8.67
2023-04-20T08:14:53.126Z,7.90
2023-04-20T08:18:54.274Z,9.13
2023-04-20T08:22:55.441Z,8.63
2023-04-20T08:26:58.779Z,8.03
2023-04-20T08:31:00.025Z,9.30
2023-04-20T08:35:01.211Z,9.97
2023-04-20T08:39:08.921Z,10.30
2023-04-20T08:43:10.574Z,9.07
2023-04-20T08:47:12.440Z,8.30
2023-04-20T08:51:16.393Z,8.23
2023-04-20T08:55:18.294Z,8.20
2023-04-20T08:59:19.460Z,11.73
2023-04-20T09:03:39.475Z,8.60
2023-04-20T09:07:44.509Z,9.00
2023-04-20T09:11:46.190Z,9.40
2023-04-20T09:15:47.535Z,9.60
2023-04-20T09:19:53.896Z,8.27
2023-04-20T09:23:57.672Z,9.97
2023-04-20T09:28:00.597Z,11.57
2023-04-20T09:32:01.857Z,11.10
2023-04-20T09:36:05.244Z,8.93
2023-04-20T09:40:07.963Z,9.43
2023-04-20T09:44:10.349Z,8.57
2023-04-20T09:48:13.598Z,10.80
2023-04-20T09:52:18.227Z,6.93
2023-04-20T09:56:20.680Z,10.00
2023-04-20T10:00:22.775Z,7.63
2023-04-20T10:04:24.416Z,7.33
2023-04-20T10:08:25.983Z,9.80
2023-04-20T10:12:27.134Z,11.30
2023-04-20T10:16:28.345Z,7.87
2023-04-20T10:20:29.578Z,8.00
2023-04-20T10:24:31.439Z,7.57
2023-04-20T10:28:40.963Z,8.80
2023-04-20T10:32:43.177Z,7.50
2023-04-20T10:36:44.349Z,6.93
2023-04-20T10:40:45.548Z,8.03
2023-04-20T10:44:53.829Z,6.20
2023-04-20T10:48:57.987Z,7.00
2023-04-20T10:52:59.166Z,8.30
2023-04-20T10:57:02.266Z,7.93
2023-04-20T11:01:04.361Z,6.97
2023-04-20T11:05:12.210Z,7.30
2023-04-20T11:09:26.078Z,7.73
2023-04-20T11:13:28.533Z,8.03
2023-04-20T11:17:33.835Z,7.10
2023-04-20T11:21:37.894Z,6.53
2023-04-20T11:25:51.049Z,5.27
2023-04-20T11:30:00.168Z,7.53
2023-04-20T11:34:01.634Z,7.37
2023-04-20T11:38:02.793Z,9.50
2023-04-20T11:42:05.336Z,6.40
2023-04-20T11:46:17.418Z,7.37
2023-04-20T11:50:18.621Z,6.37
2023-04-20T11:54:21.176Z,9.87
2023-04-20T11:58:22.352Z,6.17
2023-04-20T12:02:23.868Z,8.17
2023-04-20T12:06:26.465Z,6.53
2023-04-20T12:10:27.665Z,6.57
2023-04-20T12:14:28.826Z,5.70
2023-04-20T12:18:29.990Z,7.03
2023-04-20T12:22:31.160Z,6.90
2023-04-20T12:26:38.516Z,6.30
2023-04-20T12:30:37.263Z,6.13
2023-04-20T12:34:38.438Z,7.20
2023-04-20T12:38:39.625Z,6.50
2023-04-20T12:42:40.794Z,9.10
2023-04-20T12:46:42.071Z,5.53
2023-04-20T12:50:43.314Z,6.07
2023-04-20T12:54:44.642Z,6.90
2023-04-20T12:58:46.673Z,6.70
2023-04-20T13:02:47.992Z,7.80
2023-04-20T13:06:49.538Z,6.90
2023-04-20T13:10:53.139Z,7.57
2023-04-20T13:14:54.376Z,8.67
2023-04-20T13:18:55.646Z,7.00
2023-04-20T13:23:00.928Z,6.87
2023-04-20T13:27:02.235Z,6.20
2023-04-20T13:31:03.739Z,6.63
2023-04-20T13:35:06.140Z,6.30
2023-04-20T13:39:10.157Z,5.60
2023-04-20T13:43:12.761Z,5.70
2023-04-20T13:47:14.255Z,6.80
2023-04-20T13:51:15.450Z,7.03
2023-04-20T13:55:18.790Z,8.20
2023-04-20T13:59:19.973Z,6.27
2023-04-20T14:03:21.506Z,6.77
2023-04-20T14:07:22.780Z,5.77
2023-04-20T14:11:23.977Z,18.10
2023-04-20T14:15:27.348Z,5.47
2023-04-20T14:19:28.526Z,6.00
2023-04-20T14:23:30.160Z,7.03
2023-04-20T14:27:31.923Z,6.53
2023-04-20T14:31:34.254Z,5.60
2023-04-20T14:35:35.712Z,5.67
2023-04-20T14:39:36.894Z,5.33
2023-04-20T14:43:38.072Z,5.97
2023-04-20T14:47:40.351Z,5.20
2023-04-20T14:51:41.868Z,6.90
2023-04-20T14:55:43.108Z,5.57
2023-04-20T14:59:44.375Z,5.37
2023-04-20T15:03:45.782Z,6.97
2023-04-20T15:07:49.236Z,7.00
2023-04-20T15:11:50.465Z,8.43
2023-04-20T15:15:54.118Z,6.50
2023-04-20T15:19:55.359Z,6.13
2023-04-20T15:23:56.971Z,8.60
2023-04-20T15:27:58.287Z,7.53
2023-04-20T15:32:00.609Z,6.97
2023-04-20T15:36:04.552Z,9.10
2023-04-20T15:40:07.096Z,7.67
2023-04-20T15:44:08.526Z,7.97
2023-04-20T15:48:10.126Z,6.90
2023-04-20T15:52:11.284Z,7.67
2023-04-20T15:56:12.695Z,9.40
2023-04-20T16:00:14.457Z,6.73
2023-04-20T16:04:16.092Z,9.00
2023-04-20T16:08:18.395Z,8.70
2023-04-20T16:12:20.396Z,9.73
2023-04-20T16:16:26.123Z,12.03
2023-04-20T16:20:27.455Z,8.83
2023-04-20T16:24:28.594Z,8.00
2023-04-20T16:28:29.851Z,9.17
2023-04-20T16:32:31.541Z,8.00
2023-04-20T16:36:35.720Z,7.90
2023-04-20T16:40:36.902Z,8.47
2023-04-20T16:44:40.275Z,8.53
2023-04-20T16:48:41.820Z,8.03
2023-04-20T16:52:43.004Z,9.03
2023-04-20T16:56:44.171Z,9.33
2023-04-20T17:00:45.526Z,10.47
2023-04-20T17:04:46.684Z,17.00
2023-04-20T17:08:48.707Z,18.60
2023-04-20T17:12:50.283Z,15.03
2023-04-20T17:16:53.331Z,10.47
2023-04-20T17:20:56.627Z,9.87
2023-04-20T17:24:57.799Z,10.93
2023-04-20T17:28:58.941Z,10.20
2023-04-20T17:33:00.222Z,10.40
2023-04-20T17:37:02.346Z,12.60
2023-04-20T17:41:04.727Z,11.73
2023-04-20T17:45:07.087Z,15.50
2023-04-20T17:49:08.480Z,13.87
2023-04-20T17:53:09.659Z,12.70
2023-04-20T17:57:10.828Z,15.20
2023-04-20T18:01:12.241Z,15.87
2023-04-20T18:05:13.303Z,16.80
2023-04-20T18:09:14.508Z,20.10
2023-04-20T18:13:15.677Z,16.30
2023-04-20T18:17:17.155Z,22.60
2023-04-20T18:21:18.292Z,17.47
2023-04-20T18:25:19.619Z,20.53
2023-04-20T18:29:21.617Z,19.80
2023-04-20T18:33:22.785Z,19.23
2023-04-20T18:37:23.969Z,19.60
2023-04-20T18:41:26.798Z,22.30
2023-04-20T18:45:28.267Z,23.23
2023-04-20T18:49:30.154Z,24.20
2023-04-20T18:53:33.188Z,16.00
2023-04-20T18:57:34.548Z,16.83
2023-04-20T19:01:38.332Z,16.50
2023-04-20T19:05:39.593Z,16.80
2023-04-20T19:09:40.728Z,19.77
2023-04-20T19:13:43.697Z,17.27
2023-04-20T19:17:45.082Z,16.87
2023-04-20T19:21:47.654Z,17.40
2023-04-20T19:25:48.809Z,16.93
2023-04-20T19:29:50.053Z,19.67
2023-04-20T19:33:51.599Z,18.43
2023-04-20T19:37:53.857Z,18.47
2023-04-20T19:41:54.994Z,20.00
2023-04-20T19:45:56.254Z,20.97
2023-04-20T19:49:59.186Z,21.13
2023-04-20T19:54:02.874Z,20.50
2023-04-20T19:58:06.436Z,21.27
2023-04-20T20:02:07.766Z,22.60
2023-04-20T20:06:09.327Z,26.10
2023-04-20T20:10:10.494Z,25.37
2023-04-20T20:14:11.661Z,28.17
2023-04-20T20:18:14.330Z,25.93
2023-04-20T20:22:16.149Z,27.30
2023-04-20T20:26:17.200Z,23.00
2023-04-20T20:30:18.417Z,26.00
2023-04-20T20:34:19.549Z,25.90
2023-04-20T20:38:22.110Z,29.00
2023-04-20T20:42:25.012Z,29.10
2023-04-20T20:46:26.206Z,29.30
2023-04-20T20:50:27.436Z,28.70
2023-04-20T20:54:28.598Z,28.97
2023-04-20T20:58:30.360Z,33.40
2023-04-20T21:02:31.551Z,29.40
2023-04-20T21:06:33.013Z,29.87
2023-04-20T21:10:34.240Z,30.03
2023-04-20T21:14:36.556Z,30.37
2023-04-20T21:18:37.801Z,36.20
2023-04-20T21:22:39.484Z,30.63
2023-04-20T21:26:40.752Z,31.30
2023-04-20T21:30:41.906Z,30.87
2023-04-20T21:34:43.059Z,31.20
2023-04-20T21:38:44.321Z,34.30
2023-04-20T21:42:45.566Z,32.13
2023-04-20T21:46:46.756Z,31.60
2023-04-20T21:50:47.955Z,30.83
2023-04-20T21:54:49.246Z,37.57
2023-04-20T21:58:50.437Z,38.23
2023-04-20T22:02:53.579Z,33.20
2023-04-20T22:06:54.876Z,37.60
2023-04-20T22:10:56.022Z,32.00
2023-04-20T22:14:57.205Z,30.97
2023-04-20T22:18:59.763Z,30.80
2023-04-20T22:23:03.509Z,33.77
2023-04-20T22:27:04.658Z,31.27
2023-04-20T22:31:05.851Z,36.93
2023-04-20T22:35:07.348Z,34.67
2023-04-20T22:39:08.854Z,33.50
2023-04-20T22:43:10.674Z,33.20
2023-04-20T22:47:11.906Z,35.77
2023-04-20T22:51:16.502Z,35.00
2023-04-20T22:55:17.650Z,33.63
2023-04-20T22:59:19.400Z,36.50
2023-04-20T23:03:20.831Z,34.37
2023-04-20T23:07:22.563Z,33.73
2023-04-20T23:11:25.667Z,35.90
2023-04-20T23:15:26.819Z,32.43
2023-04-20T23:19:29.897Z,34.63
2023-04-20T23:23:31.059Z,33.73
2023-04-20T23:27:32.219Z,36.83
2023-04-20T23:31:33.429Z,34.50
2023-04-20T23:35:36.133Z,36.20
2023-04-20T23:39:37.629Z,39.43
2023-04-20T23:43:40.033Z,38.60
2023-04-20T23:47:41.239Z,38.00
2023-04-20T23:51:42.499Z,37.47
2023-04-20T23:55:47.337Z,41.03
2023-04-20T23:59:48.480Z,37.20
